createdAt,value
2023-03-15T00:00:34.131Z,73.04
2023-03-15T00:03:06.864Z,73.15
2023-03-15T00:05:37.578Z,73.36
2023-03-15T00:08:08.186Z,73.02
2023-03-15T00:10:38.345Z,73.02
2023-03-15T00:13:11.491Z,72.97
2023-03-15T00:15:48.762Z,72.77
2023-03-15T00:18:20.690Z,72.81
2023-03-15T00:20:51.321Z,72.69
2023-03-15T00:23:21.982Z,72.28
2023-03-15T00:25:53.846Z,72.23
2023-03-15T00:28:26.563Z,72.12
2023-03-15T00:31:06.918Z,72.02
2023-03-15T00:33:37.652Z,71.79
2023-03-15T00:36:09.982Z,71.87
2023-03-15T00:38:42.012Z,71.86
2023-03-15T00:41:14.089Z,71.54
2023-03-15T00:43:48.126Z,71.54
2023-03-15T00:46:20.121Z,71.80
2023-03-15T00:48:54.306Z,71.35
2023-03-15T00:51:25.281Z,70.43
2023-03-15T00:53:56.340Z,71.20
2023-03-15T00:56:30.177Z,71.05
2023-03-15T00:59:04.096Z,70.81
2023-03-15T01:01:34.733Z,70.71
2023-03-15T01:04:07.539Z,70.24
2023-03-15T01:06:37.457Z,70.11
2023-03-15T01:09:07.531Z,69.89
2023-03-15T01:11:38.007Z,69.95
2023-03-15T01:14:12.282Z,70.09
2023-03-15T01:16:42.952Z,70.10
2023-03-15T01:19:14.099Z,69.96
2023-03-15T01:21:44.266Z,69.73
2023-03-15T01:24:18.915Z,70.16
2023-03-15T01:26:48.946Z,69.90
2023-03-15T01:29:21.537Z,70.17
2023-03-15T01:31:52.259Z,69.98
2023-03-15T01:34:23.651Z,69.94
2023-03-15T01:36:55.509Z,69.71
2023-03-15T01:39:33.313Z,69.59
2023-03-15T01:42:05.410Z,69.55
2023-03-15T01:45:00.488Z,69.76
2023-03-15T01:47:34.635Z,69.60
2023-03-15T01:50:09.684Z,69.65
2023-03-15T01:52:44.599Z,69.69
2023-03-15T01:55:23.077Z,69.51
2023-03-15T01:58:08.543Z,69.53
2023-03-15T02:00:45.721Z,69.16
2023-03-15T02:03:24.412Z,68.66
2023-03-15T02:06:01.472Z,68.91
2023-03-15T02:08:49.623Z,69.10
2023-03-15T02:11:22.981Z,68.96
2023-03-15T02:13:54.274Z,69.16
2023-03-15T02:16:27.936Z,69.43
2023-03-15T02:19:02.722Z,69.68
2023-03-15T02:21:45.509Z,69.56
2023-03-15T02:24:27.613Z,69.37
2023-03-15T02:27:00.070Z,69.16
2023-03-15T02:29:33.569Z,69.10
2023-03-15T02:32:06.095Z,69.08
2023-03-15T02:34:36.285Z,69.13
2023-03-15T02:37:06.319Z,69.26
2023-03-15T02:39:36.421Z,69.47
2023-03-15T02:42:07.664Z,69.15
2023-03-15T02:44:42.725Z,69.36
2023-03-15T02:47:16.966Z,69.25
2023-03-15T02:49:50.828Z,69.28
2023-03-15T02:52:20.952Z,69.02
2023-03-15T02:54:51.233Z,69.41
2023-03-15T02:57:22.684Z,69.77
2023-03-15T02:59:57.012Z,69.90
2023-03-15T03:02:27.306Z,69.74
2023-03-15T03:04:57.698Z,69.89
2023-03-15T03:07:28.061Z,70.25
2023-03-15T03:10:03.991Z,69.99
2023-03-15T03:12:42.971Z,70.36
2023-03-15T03:15:16.545Z,70.50
2023-03-15T03:17:46.892Z,70.69
2023-03-15T03:20:17.348Z,71.20
2023-03-15T03:22:49.918Z,71.30
2023-03-15T03:25:21.524Z,71.47
2023-03-15T03:27:51.747Z,71.41
2023-03-15T03:30:24.590Z,71.61
2023-03-15T03:32:55.649Z,71.97
2023-03-15T03:35:25.601Z,72.17
2023-03-15T03:37:56.424Z,72.18
2023-03-15T03:40:32.324Z,72.33
2023-03-15T03:43:02.886Z,72.52
2023-03-15T03:45:36.432Z,72.64
2023-03-15T03:48:07.431Z,72.91
2023-03-15T03:50:38.328Z,72.86
2023-03-15T03:53:08.561Z,72.91
2023-03-15T03:55:42.836Z,73.05
2023-03-15T03:58:13.526Z,73.13
2023-03-15T04:00:57.377Z,72.79
2023-03-15T04:03:30.331Z,72.57
2023-03-15T04:06:13.891Z,72.72
2023-03-15T04:08:47.554Z,73.26
2023-03-15T04:11:26.878Z,72.95
2023-03-15T04:14:00.920Z,73.13
2023-03-15T04:16:33.923Z,72.99
2023-03-15T04:19:08.417Z,73.15
2023-03-15T04:21:39.577Z,73.40
2023-03-15T04:24:23.382Z,73.24
2023-03-15T04:27:16.557Z,73.29
2023-03-15T04:30:05.480Z,73.33
2023-03-15T04:33:07.153Z,73.38
2023-03-15T04:36:03.225Z,73.19
2023-03-15T04:38:49.667Z,73.27
2023-03-15T04:41:31.872Z,73.13
2023-03-15T04:44:18.549Z,73.16
2023-03-15T04:46:48.882Z,73.36
2023-03-15T04:49:40.546Z,73.63
2023-03-15T04:52:36.720Z,73.48
2023-03-15T04:55:25.086Z,73.42
2023-03-15T04:58:03.021Z,73.87
2023-03-15T05:00:53.107Z,73.70
2023-03-15T05:03:23.555Z,73.57
2023-03-15T05:06:26.769Z,73.96
2023-03-15T05:09:23.079Z,73.85
2023-03-15T05:12:12.823Z,73.77
2023-03-15T05:15:05.894Z,73.97
2023-03-15T05:18:02.016Z,74.34
2023-03-15T05:20:52.102Z,74.43
2023-03-15T05:23:36.409Z,74.32
2023-03-15T05:26:32.770Z,74.07
2023-03-15T05:29:28.518Z,74.74
2023-03-15T05:32:28.336Z,73.86
2023-03-15T05:35:22.355Z,71.95
2023-03-15T05:38:07.200Z,71.30
2023-03-15T05:40:52.218Z,71.72
2023-03-15T05:43:45.262Z,71.79
2023-03-15T05:46:33.840Z,71.33
2023-03-15T05:49:24.780Z,71.44
2023-03-15T05:52:10.265Z,71.71
2023-03-15T05:54:50.883Z,72.49
2023-03-15T05:57:32.800Z,73.40
2023-03-15T06:00:21.239Z,74.28
2023-03-15T06:02:55.568Z,74.89
2023-03-15T06:05:37.698Z,75.25
2023-03-15T06:08:10.891Z,75.21
2023-03-15T06:10:44.988Z,75.25
2023-03-15T06:13:18.464Z,75.30
2023-03-15T06:15:50.181Z,75.43
2023-03-15T06:18:22.085Z,75.34
2023-03-15T06:20:53.851Z,75.39
2023-03-15T06:23:24.012Z,75.60
2023-03-15T06:25:54.252Z,75.81
2023-03-15T06:28:28.145Z,75.94
2023-03-15T06:31:01.680Z,75.76
2023-03-15T06:33:38.354Z,75.73
2023-03-15T06:36:11.758Z,75.36
2023-03-15T06:38:43.336Z,75.04
2023-03-15T06:41:15.619Z,74.82
2023-03-15T06:43:49.369Z,74.70
2023-03-15T06:46:20.186Z,74.61
2023-03-15T06:48:50.315Z,74.44
2023-03-15T06:51:20.987Z,74.22
2023-03-15T06:53:51.202Z,74.43
2023-03-15T06:56:21.892Z,74.54
2023-03-15T06:58:54.661Z,74.73
2023-03-15T07:01:24.974Z,74.89
2023-03-15T07:03:54.926Z,74.62
2023-03-15T07:06:24.987Z,74.50
2023-03-15T07:08:55.092Z,73.98
2023-03-15T07:11:25.051Z,74.38
2023-03-15T07:13:58.625Z,74.23
2023-03-15T07:16:29.004Z,74.33
2023-03-15T07:19:00.106Z,74.55
2023-03-15T07:21:30.900Z,74.68
2023-03-15T07:24:00.945Z,74.74
2023-03-15T07:26:30.974Z,74.58
2023-03-15T07:29:03.586Z,74.36
2023-03-15T07:31:33.870Z,74.07
2023-03-15T07:34:04.032Z,73.98
2023-03-15T07:36:34.935Z,73.69
2023-03-15T07:39:05.871Z,73.01
2023-03-15T07:41:36.772Z,72.91
2023-03-15T07:44:20.483Z,72.76
2023-03-15T07:46:50.538Z,72.83
2023-03-15T07:49:21.172Z,73.10
2023-03-15T07:51:51.307Z,73.10
2023-03-15T07:54:21.464Z,73.11
2023-03-15T07:56:51.390Z,73.16
2023-03-15T07:59:23.959Z,73.00
2023-03-15T08:01:54.161Z,73.57
2023-03-15T08:04:24.365Z,73.53
2023-03-15T08:06:54.571Z,73.52
2023-03-15T08:09:25.070Z,73.23
2023-03-15T08:11:54.983Z,72.88
2023-03-15T08:14:27.630Z,72.65
2023-03-15T08:16:57.792Z,72.52
2023-03-15T08:19:27.992Z,72.69
2023-03-15T08:21:58.165Z,72.85
2023-03-15T08:24:28.221Z,72.80
2023-03-15T08:26:58.206Z,73.03
2023-03-15T08:29:30.931Z,72.39
2023-03-15T08:32:01.217Z,72.13
2023-03-15T08:34:32.798Z,71.80
2023-03-15T08:37:02.915Z,71.88
2023-03-15T08:39:32.850Z,71.55
2023-03-15T08:42:02.828Z,71.06
2023-03-15T08:44:36.350Z,71.17
2023-03-15T08:47:06.932Z,70.90
2023-03-15T08:49:37.219Z,70.99
2023-03-15T08:52:07.989Z,70.84
2023-03-15T08:54:38.030Z,70.62
2023-03-15T08:57:08.083Z,70.72
2023-03-15T08:59:40.681Z,70.49
2023-03-15T09:02:13.789Z,69.71
2023-03-15T09:04:44.020Z,69.78
2023-03-15T09:07:15.455Z,70.10
2023-03-15T09:09:48.773Z,69.63
2023-03-15T09:12:19.418Z,69.78
2023-03-15T09:14:51.990Z,70.06
2023-03-15T09:17:22.031Z,69.62
2023-03-15T09:19:52.729Z,69.34
2023-03-15T09:22:38.506Z,69.27
2023-03-15T09:25:10.210Z,70.01
2023-03-15T09:27:40.798Z,70.78
2023-03-15T09:30:14.997Z,71.05
2023-03-15T09:32:46.024Z,70.79
2023-03-15T09:35:17.743Z,69.67
2023-03-15T09:37:48.345Z,69.41
2023-03-15T09:40:22.738Z,68.82
2023-03-15T09:43:10.328Z,67.36
2023-03-15T09:46:06.278Z,67.48
2023-03-15T09:48:40.716Z,67.65
2023-03-15T09:51:14.917Z,64.93
2023-03-15T09:53:53.839Z,67.38
2023-03-15T09:56:27.864Z,67.98
2023-03-15T09:59:02.456Z,67.58
2023-03-15T10:01:38.205Z,66.75
2023-03-15T10:04:13.273Z,66.43
2023-03-15T10:06:50.299Z,66.43
2023-03-15T10:09:24.431Z,65.97
2023-03-15T10:11:59.696Z,59.49
2023-03-15T10:14:41.672Z,66.42
2023-03-15T10:17:16.606Z,66.14
2023-03-15T10:19:52.518Z,65.62
2023-03-15T10:22:28.483Z,65.23
2023-03-15T10:25:02.754Z,64.78
2023-03-15T10:27:34.974Z,60.65
2023-03-15T10:30:15.984Z,65.23
2023-03-15T10:32:54.916Z,65.05
2023-03-15T10:35:25.130Z,65.54
2023-03-15T10:37:55.219Z,65.02
2023-03-15T10:40:43.892Z,64.91
2023-03-15T10:43:24.844Z,64.69
2023-03-15T10:46:03.294Z,64.37
2023-03-15T10:48:37.781Z,64.64
2023-03-15T10:51:09.798Z,64.55
2023-03-15T10:53:40.335Z,65.79
2023-03-15T10:56:19.489Z,65.90
2023-03-15T10:59:05.865Z,65.46
2023-03-15T11:01:41.173Z,63.61
2023-03-15T11:04:20.274Z,63.24
2023-03-15T11:06:53.151Z,62.85
2023-03-15T11:09:25.834Z,63.01
2023-03-15T11:12:00.031Z,63.74
2023-03-15T11:17:30.832Z,63.94
2023-03-15T11:20:13.443Z,62.96
2023-03-15T11:22:43.403Z,63.99
2023-03-15T11:25:16.399Z,63.44
2023-03-15T11:27:52.095Z,64.50
2023-03-15T11:30:28.688Z,64.66
2023-03-15T11:33:02.001Z,64.66
2023-03-15T11:35:39.762Z,64.71
2023-03-15T11:38:16.835Z,64.30
2023-03-15T11:40:51.653Z,62.96
2023-03-15T11:43:28.587Z,63.44
2023-03-15T11:46:01.833Z,63.21
2023-03-15T11:48:46.104Z,63.11
2023-03-15T11:51:19.339Z,63.83
2023-03-15T11:53:58.368Z,63.35
2023-03-15T11:56:30.218Z,63.37
2023-03-15T11:59:10.950Z,64.27
2023-03-15T12:01:45.332Z,63.97
2023-03-15T12:04:54.337Z,61.96
2023-03-15T12:07:40.228Z,62.06
2023-03-15T12:10:34.533Z,57.61
2023-03-15T12:13:19.386Z,60.99
2023-03-15T12:15:51.904Z,61.26
2023-03-15T12:18:31.274Z,60.59
2023-03-15T12:21:17.711Z,60.51
2023-03-15T12:24:04.050Z,60.89
2023-03-15T12:26:48.593Z,60.55
2023-03-15T12:29:21.242Z,53.44
2023-03-15T12:32:07.737Z,62.03
2023-03-15T12:34:45.278Z,62.92
2023-03-15T12:37:23.605Z,64.10
2023-03-15T12:40:05.224Z,66.12
2023-03-15T12:43:13.902Z,65.86
2023-03-15T12:45:48.768Z,67.78
2023-03-15T12:48:26.971Z,68.45
2023-03-15T12:51:16.222Z,68.21
2023-03-15T12:53:54.386Z,69.69
2023-03-15T12:56:38.844Z,69.75
2023-03-15T12:59:28.408Z,70.02
2023-03-15T13:01:59.822Z,70.19
2023-03-15T13:04:31.331Z,70.73
2023-03-15T13:07:27.496Z,70.75
2023-03-15T13:10:25.704Z,71.19
2023-03-15T13:13:04.455Z,71.00
2023-03-15T13:15:40.801Z,70.51
2023-03-15T13:18:18.309Z,69.84
2023-03-15T13:21:00.546Z,69.65
2023-03-15T13:23:34.337Z,69.03
2023-03-15T13:26:19.036Z,69.25
2023-03-15T13:28:54.519Z,70.09
2023-03-15T13:31:27.279Z,69.55
2023-03-15T13:34:00.389Z,69.02
2023-03-15T13:36:40.271Z,68.52
2023-03-15T13:39:17.821Z,68.31
2023-03-15T13:41:48.522Z,67.92
2023-03-15T13:44:24.984Z,67.73
2023-03-15T13:46:56.827Z,67.61
2023-03-15T13:49:27.665Z,67.16
2023-03-15T13:51:57.982Z,67.30
2023-03-15T13:54:30.748Z,66.56
2023-03-15T13:57:05.201Z,66.62
2023-03-15T13:59:40.922Z,66.10
2023-03-15T14:02:18.687Z,66.70
2023-03-15T14:04:54.487Z,66.57
2023-03-15T14:07:31.930Z,66.33
2023-03-15T14:10:32.023Z,65.87
2023-03-15T14:13:18.209Z,66.43
2023-03-15T14:15:51.116Z,66.42
2023-03-15T14:18:25.839Z,66.07
2023-03-15T14:21:01.699Z,66.18
2023-03-15T14:23:33.753Z,65.94
2023-03-15T14:26:09.885Z,65.98
2023-03-15T14:28:40.422Z,65.74
2023-03-15T14:31:24.971Z,65.78
2023-03-15T14:34:00.551Z,65.42
2023-03-15T14:36:35.860Z,65.13
2023-03-15T14:39:06.789Z,64.92
2023-03-15T14:41:38.812Z,65.44
2023-03-15T14:44:09.152Z,65.84
2023-03-15T14:46:42.553Z,65.66
2023-03-15T14:49:16.151Z,65.92
2023-03-15T14:51:50.813Z,65.85
2023-03-15T14:54:21.438Z,65.66
2023-03-15T14:56:53.233Z,65.78
2023-03-15T14:59:23.660Z,65.73
2023-03-15T15:02:00.323Z,65.79
2023-03-15T15:04:37.958Z,66.21
2023-03-15T15:07:08.425Z,66.22
2023-03-15T15:09:40.148Z,65.71
2023-03-15T15:12:12.587Z,65.81
2023-03-15T15:14:42.878Z,65.95
2023-03-15T15:17:16.307Z,65.91
2023-03-15T15:19:47.121Z,66.11
2023-03-15T15:22:18.219Z,66.00
2023-03-15T15:24:51.304Z,65.80
2023-03-15T15:27:21.595Z,66.10
2023-03-15T15:29:52.491Z,65.49
2023-03-15T15:32:25.750Z,65.58
2023-03-15T15:34:56.365Z,65.79
2023-03-15T15:37:26.559Z,65.63
2023-03-15T15:39:56.738Z,65.78
2023-03-15T15:42:27.087Z,66.27
2023-03-15T15:44:58.530Z,66.11
2023-03-15T15:47:32.194Z,66.40
2023-03-15T15:50:02.399Z,66.22
2023-03-15T15:52:32.767Z,65.85
2023-03-15T15:55:05.709Z,65.81
2023-03-15T15:57:36.029Z,66.39
2023-03-15T16:00:06.986Z,66.48
2023-03-15T16:02:44.850Z,66.37
2023-03-15T16:05:15.252Z,66.07
2023-03-15T16:07:45.317Z,66.20
2023-03-15T16:10:21.918Z,66.28
2023-03-15T16:12:53.362Z,66.25
2023-03-15T16:15:23.777Z,66.64
2023-03-15T16:17:56.606Z,66.65
2023-03-15T16:20:27.414Z,66.65
2023-03-15T16:23:02.200Z,66.99
2023-03-15T16:25:37.523Z,67.37
2023-03-15T16:28:08.330Z,67.00
2023-03-15T16:30:39.115Z,67.34
2023-03-15T16:33:17.601Z,67.70
2023-03-15T16:35:50.260Z,67.59
2023-03-15T16:38:25.260Z,67.71
2023-03-15T16:40:55.836Z,67.74
2023-03-15T16:43:25.797Z,67.70
2023-03-15T16:45:55.802Z,67.55
2023-03-15T16:48:28.872Z,67.44
2023-03-15T16:50:59.013Z,67.02
2023-03-15T16:53:29.096Z,67.51
2023-03-15T16:55:59.223Z,67.29
2023-03-15T16:58:30.415Z,67.33
2023-03-15T17:01:02.203Z,67.27
2023-03-15T17:03:35.273Z,67.46
2023-03-15T17:06:05.891Z,67.31
2023-03-15T17:08:36.800Z,67.06
2023-03-15T17:11:06.837Z,67.16
2023-03-15T17:13:40.796Z,67.28
2023-03-15T17:16:15.398Z,67.70
2023-03-15T17:18:48.889Z,67.72
2023-03-15T17:21:21.313Z,67.89
2023-03-15T17:23:52.797Z,68.04
2023-03-15T17:26:25.213Z,68.28
2023-03-15T17:28:55.225Z,68.38
2023-03-15T17:31:27.798Z,68.43
2023-03-15T17:34:00.774Z,68.57
2023-03-15T17:36:37.678Z,68.55
2023-03-15T17:39:10.643Z,68.30
2023-03-15T17:41:50.458Z,68.82
2023-03-15T17:44:20.933Z,68.55
2023-03-15T17:46:50.989Z,68.73
2023-03-15T17:49:24.669Z,68.79
2023-03-15T17:51:54.614Z,69.00
2023-03-15T17:54:24.776Z,69.35
2023-03-15T17:56:55.406Z,69.35
2023-03-15T17:59:25.516Z,69.20
2023-03-15T18:01:55.770Z,69.33
2023-03-15T18:04:28.454Z,69.33
2023-03-15T18:06:58.493Z,69.56
2023-03-15T18:09:28.812Z,69.50
2023-03-15T18:11:59.009Z,69.73
2023-03-15T18:14:30.988Z,69.69
2023-03-15T18:17:00.979Z,69.78
2023-03-15T18:19:33.598Z,69.62
2023-03-15T18:22:03.635Z,69.69
2023-03-15T18:24:34.521Z,69.59
2023-03-15T18:27:04.463Z,69.91
2023-03-15T18:29:34.560Z,69.71
2023-03-15T18:32:04.632Z,70.06
2023-03-15T18:34:37.996Z,69.97
2023-03-15T18:37:09.822Z,69.95
2023-03-15T18:39:40.493Z,70.10
2023-03-15T18:42:12.110Z,69.91
2023-03-15T18:44:44.087Z,69.95
2023-03-15T18:47:17.375Z,70.10
2023-03-15T18:49:53.138Z,69.96
2023-03-15T18:52:25.677Z,69.71
2023-03-15T18:54:56.172Z,69.82
2023-03-15T18:57:26.065Z,69.97
2023-03-15T18:59:56.489Z,69.74
2023-03-15T19:02:27.479Z,69.80
2023-03-15T19:05:05.557Z,69.98
2023-03-15T19:07:37.798Z,70.30
2023-03-15T19:10:20.871Z,70.29
2023-03-15T19:12:56.374Z,70.52
2023-03-15T19:15:33.489Z,70.60
2023-03-15T19:18:09.538Z,70.52
2023-03-15T19:20:44.915Z,70.71
2023-03-15T19:23:17.716Z,70.32
2023-03-15T19:25:55.482Z,70.18
2023-03-15T19:28:30.524Z,70.21
2023-03-15T19:31:01.298Z,69.96
2023-03-15T19:33:34.983Z,70.12
2023-03-15T19:36:11.831Z,70.05
2023-03-15T19:38:41.922Z,70.15
2023-03-15T19:41:13.127Z,70.06
2023-03-15T19:43:43.987Z,70.08
2023-03-15T19:46:15.510Z,70.08
2023-03-15T19:48:45.558Z,70.40
2023-03-15T19:51:18.186Z,70.27
2023-03-15T19:53:48.106Z,70.34
2023-03-15T19:56:18.696Z,70.36
2023-03-15T19:58:48.626Z,70.64
2023-03-15T20:01:18.677Z,70.70
2023-03-15T20:03:49.818Z,70.75
2023-03-15T20:06:22.811Z,70.87
2023-03-15T20:08:53.170Z,70.60
2023-03-15T20:11:25.246Z,70.69
2023-03-15T20:13:55.889Z,70.49
2023-03-15T20:16:25.919Z,70.50
2023-03-15T20:18:56.168Z,70.50
2023-03-15T20:21:29.459Z,70.47
2023-03-15T20:23:59.334Z,70.38
2023-03-15T20:26:31.342Z,70.44
2023-03-15T20:29:01.950Z,70.21
2023-03-15T20:31:32.034Z,70.23
2023-03-15T20:34:02.067Z,70.21
2023-03-15T20:36:35.180Z,70.33
2023-03-15T20:39:05.497Z,70.30
2023-03-15T20:41:35.828Z,70.55
2023-03-15T20:44:05.943Z,70.63
2023-03-15T20:46:35.996Z,70.62
2023-03-15T20:49:05.969Z,71.10
2023-03-15T20:51:38.986Z,70.53
2023-03-15T20:54:12.156Z,70.51
2023-03-15T20:56:42.404Z,70.43
2023-03-15T20:59:12.392Z,70.50
2023-03-15T21:01:42.488Z,70.85
2023-03-15T21:04:13.643Z,70.59
2023-03-15T21:06:46.459Z,70.62
2023-03-15T21:09:16.403Z,70.55
2023-03-15T21:11:46.563Z,70.79
2023-03-15T21:14:16.704Z,70.76
2023-03-15T21:16:46.754Z,70.80
2023-03-15T21:19:16.812Z,70.87
2023-03-15T21:21:49.592Z,70.70
2023-03-15T21:24:19.550Z,70.74
2023-03-15T21:26:54.971Z,70.81
2023-03-15T21:29:25.160Z,71.01
2023-03-15T21:31:55.318Z,70.90
2023-03-15T21:34:25.339Z,71.08
2023-03-15T21:36:58.004Z,71.18
2023-03-15T21:39:28.160Z,70.87
2023-03-15T21:41:58.218Z,71.14
2023-03-15T21:44:28.257Z,71.20
2023-03-15T21:46:58.755Z,71.07
2023-03-15T21:49:28.641Z,71.16
2023-03-15T21:52:02.475Z,71.29
2023-03-15T21:54:32.476Z,71.30
2023-03-15T21:57:02.384Z,71.85
2023-03-15T21:59:32.549Z,71.46
2023-03-15T22:02:03.704Z,71.45
2023-03-15T22:04:34.064Z,71.61
2023-03-15T22:07:07.494Z,71.55
2023-03-15T22:09:38.213Z,71.39
2023-03-15T22:12:09.010Z,71.39
2023-03-15T22:14:40.246Z,71.55
2023-03-15T22:17:10.760Z,71.81
2023-03-15T22:19:41.208Z,71.71
2023-03-15T22:22:14.135Z,71.76
2023-03-15T22:24:45.019Z,71.52
2023-03-15T22:27:15.850Z,71.67
2023-03-15T22:29:46.049Z,71.76
2023-03-15T22:32:16.415Z,71.74
2023-03-15T22:34:47.564Z,71.87
2023-03-15T22:37:20.388Z,72.04
2023-03-15T22:39:50.915Z,71.79
2023-03-15T22:42:21.134Z,71.74
2023-03-15T22:44:51.302Z,71.98
2023-03-15T22:47:21.395Z,71.90
2023-03-15T22:49:52.215Z,71.79
2023-03-15T22:52:25.318Z,71.67
2023-03-15T22:54:55.543Z,71.86
2023-03-15T22:57:26.516Z,71.79
2023-03-15T22:59:56.516Z,71.71
2023-03-15T23:02:26.871Z,71.85
2023-03-15T23:04:57.063Z,71.55
2023-03-15T23:07:29.832Z,71.86
2023-03-15T23:09:59.841Z,71.80
2023-03-15T23:12:35.842Z,71.96
2023-03-15T23:15:07.720Z,71.76
2023-03-15T23:17:37.934Z,71.64
2023-03-15T23:20:10.264Z,71.73
2023-03-15T23:22:42.967Z,71.80
2023-03-15T23:25:14.687Z,71.86
2023-03-15T23:27:45.261Z,71.59
2023-03-15T23:30:17.353Z,71.71
2023-03-15T23:32:47.772Z,71.62
2023-03-15T23:35:18.392Z,71.36
2023-03-15T23:37:51.052Z,71.50
2023-03-15T23:40:21.488Z,71.14
2023-03-15T23:42:59.227Z,71.43
2023-03-15T23:45:30.990Z,71.21
2023-03-15T23:48:02.460Z,71.24
2023-03-15T23:50:32.579Z,70.77
2023-03-15T23:53:05.190Z,71.20
2023-03-15T23:55:35.277Z,71.40
2023-03-15T23:58:06.906Z,71.43
